createdAt,value
2019-05-14T00:02:12.381Z,2.30
2019-05-14T00:05:02.896Z,2.00
2019-05-14T00:07:52.999Z,2.00
2019-05-14T00:10:43.126Z,2.53
2019-05-14T00:13:32.883Z,2.03
2019-05-14T00:16:24.316Z,1.90
2019-05-14T00:19:13.757Z,2.20
2019-05-14T00:22:04.403Z,1.90
2019-05-14T00:24:54.356Z,2.50
2019-05-14T00:27:45.711Z,2.30
2019-05-14T00:30:39.359Z,2.33
2019-05-14T00:33:31.360Z,2.10
2019-05-14T00:36:21.551Z,2.63
2019-05-14T00:39:14.150Z,2.50
2019-05-14T00:42:03.218Z,1.90
2019-05-14T00:44:57.679Z,2.70
2019-05-14T00:47:43.851Z,2.10
2019-05-14T00:50:33.599Z,2.60
2019-05-14T00:53:24.679Z,2.63
2019-05-14T00:56:14.273Z,2.17
2019-05-14T00:59:03.992Z,2.93
2019-05-14T01:01:54.195Z,2.73
2019-05-14T01:04:44.384Z,2.60
2019-05-14T01:10:31.330Z,2.60
2019-05-14T01:13:21.889Z,2.37
2019-05-14T01:16:11.989Z,2.47
2019-05-14T01:19:02.278Z,2.67
2019-05-14T01:21:51.584Z,2.40
2019-05-14T01:24:41.746Z,2.60
2019-05-14T01:27:32.011Z,2.57
2019-05-14T01:30:21.847Z,2.43
2019-05-14T01:33:12.208Z,2.50
2019-05-14T01:36:02.237Z,2.77
2019-05-14T01:38:52.914Z,2.60
2019-05-14T01:41:42.839Z,2.47
2019-05-14T01:44:31.966Z,2.37
2019-05-14T01:47:21.909Z,2.87
2019-05-14T01:50:11.763Z,2.40
2019-05-14T01:53:01.376Z,2.23
2019-05-14T01:55:52.011Z,2.40
2019-05-14T01:58:43.720Z,2.47
2019-05-14T02:01:33.643Z,2.30
2019-05-14T02:04:24.379Z,3.10
2019-05-14T02:07:16.021Z,3.00
2019-05-14T02:10:06.042Z,2.80
2019-05-14T02:12:56.198Z,3.17
2019-05-14T02:15:45.032Z,2.97
2019-05-14T02:18:33.748Z,2.80
2019-05-14T02:21:24.318Z,2.90
2019-05-14T02:24:13.458Z,2.60
2019-05-14T02:27:03.250Z,3.40
2019-05-14T02:29:53.110Z,3.27
2019-05-14T02:32:42.151Z,2.50
2019-05-14T02:35:31.752Z,2.67
2019-05-14T02:38:29.895Z,3.37
2019-05-14T02:41:19.821Z,2.77
2019-05-14T02:44:10.225Z,3.00
2019-05-14T02:46:59.686Z,3.00
2019-05-14T02:49:50.195Z,3.03
2019-05-14T02:52:40.752Z,3.30
2019-05-14T02:55:30.419Z,3.17
2019-05-14T02:58:21.033Z,3.10
2019-05-14T03:01:11.204Z,2.60
2019-05-14T03:04:01.718Z,2.63
2019-05-14T03:06:51.551Z,2.87
2019-05-14T03:09:41.395Z,3.03
2019-05-14T03:12:31.649Z,3.00
2019-05-14T03:15:21.656Z,3.10
2019-05-14T03:18:11.487Z,2.60
2019-05-14T03:21:01.836Z,2.77
2019-05-14T03:23:51.428Z,3.20
2019-05-14T03:26:42.529Z,3.20
2019-05-14T03:29:32.695Z,2.87
2019-05-14T03:32:23.134Z,3.23
2019-05-14T03:35:14.454Z,3.40
2019-05-14T03:38:04.637Z,3.23
2019-05-14T03:40:54.758Z,3.80
2019-05-14T03:43:45.155Z,3.83
2019-05-14T03:46:45.666Z,2.97
2019-05-14T03:49:28.830Z,4.10
2019-05-14T03:52:20.123Z,3.40
2019-05-14T03:55:10.674Z,3.27
2019-05-14T03:58:01.693Z,3.63
2019-05-14T04:01:00.368Z,3.57
2019-05-14T04:03:50.540Z,3.60
2019-05-14T04:06:42.257Z,3.57
2019-05-14T04:09:33.485Z,3.77
2019-05-14T04:12:29.155Z,3.30
2019-05-14T04:15:19.269Z,4.10
2019-05-14T04:18:10.800Z,3.40
2019-05-14T04:21:00.991Z,2.97
2019-05-14T04:23:51.525Z,4.87
2019-05-14T04:26:58.373Z,3.43
2019-05-14T04:29:39.567Z,3.17
2019-05-14T04:32:31.093Z,3.07
2019-05-14T04:35:20.911Z,3.40
2019-05-14T04:38:10.423Z,3.13
2019-05-14T04:41:00.218Z,3.50
2019-05-14T04:43:50.706Z,3.50
2019-05-14T04:46:40.480Z,3.57
2019-05-14T04:49:29.582Z,3.67
2019-05-14T04:52:20.657Z,3.37
2019-05-14T04:55:11.064Z,3.60
2019-05-14T04:58:00.719Z,3.40
2019-05-14T05:00:50.549Z,3.80
2019-05-14T05:03:45.567Z,4.07
2019-05-14T05:06:34.966Z,5.00
2019-05-14T05:09:25.224Z,3.93
2019-05-14T05:12:15.178Z,4.07
2019-05-14T05:15:04.876Z,4.17
2019-05-14T05:17:53.953Z,3.33
2019-05-14T05:20:55.095Z,3.57
2019-05-14T05:23:44.313Z,3.00
2019-05-14T05:26:34.398Z,2.70
2019-05-14T05:29:29.883Z,3.33
2019-05-14T05:32:19.755Z,3.13
2019-05-14T05:35:09.703Z,3.50
2019-05-14T05:37:59.101Z,2.80
2019-05-14T05:40:49.258Z,3.27
2019-05-14T05:43:39.278Z,2.53
2019-05-14T05:46:28.765Z,2.57
2019-05-14T05:49:18.805Z,2.90
2019-05-14T05:52:09.219Z,2.53
2019-05-14T05:54:59.090Z,2.60
2019-05-14T05:57:49.241Z,2.40
2019-05-14T06:00:44.472Z,2.43
2019-05-14T06:03:34.143Z,2.67
2019-05-14T06:06:23.948Z,2.40
2019-05-14T06:09:14.028Z,2.03
2019-05-14T06:12:03.407Z,2.27
2019-05-14T06:14:53.701Z,2.30
2019-05-14T06:17:42.517Z,2.47
2019-05-14T06:23:28.469Z,2.37
2019-05-14T06:26:23.369Z,2.40
2019-05-14T06:29:13.894Z,2.50
2019-05-14T06:32:02.915Z,2.53
2019-05-14T06:34:51.791Z,2.87
2019-05-14T06:37:40.902Z,2.37
2019-05-14T06:40:30.698Z,2.07
2019-05-14T06:43:19.607Z,1.93
2019-05-14T06:46:09.472Z,2.67
2019-05-14T06:48:59.169Z,2.37
2019-05-14T06:51:49.099Z,2.20
2019-05-14T06:54:39.047Z,1.90
2019-05-14T06:57:28.811Z,1.97
2019-05-14T07:00:20.451Z,2.40
2019-05-14T07:03:10.438Z,2.17
2019-05-14T07:05:59.899Z,1.93
2019-05-14T07:08:52.622Z,2.43
2019-05-14T07:11:41.946Z,2.10
2019-05-14T07:14:32.402Z,1.57
2019-05-14T07:17:21.870Z,1.77
2019-05-14T07:20:10.647Z,1.90
2019-05-14T07:23:00.365Z,2.20
2019-05-14T07:25:50.156Z,1.60
2019-05-14T07:28:42.488Z,2.10
2019-05-14T07:31:32.406Z,1.93
2019-05-14T07:34:21.735Z,1.73
2019-05-14T07:37:11.007Z,1.83
2019-05-14T07:40:00.002Z,1.90
2019-05-14T07:42:49.922Z,1.97
2019-05-14T07:45:39.601Z,1.47
2019-05-14T07:48:30.714Z,1.67
2019-05-14T07:51:28.207Z,1.90
2019-05-14T07:54:19.521Z,1.80
2019-05-14T07:57:09.782Z,1.60
2019-05-14T07:59:59.072Z,2.07
2019-05-14T08:02:49.127Z,1.70
2019-05-14T08:05:38.927Z,1.77
2019-05-14T08:08:30.355Z,1.90
2019-05-14T08:11:20.964Z,1.60
2019-05-14T08:14:10.056Z,1.83
2019-05-14T08:16:59.773Z,2.10
2019-05-14T08:19:49.391Z,1.60
2019-05-14T08:22:39.776Z,2.00
2019-05-14T08:25:29.043Z,1.57
2019-05-14T08:28:21.208Z,1.80
2019-05-14T08:31:10.461Z,1.63
2019-05-14T08:34:04.689Z,2.13
2019-05-14T08:36:50.966Z,1.43
2019-05-14T08:39:40.916Z,1.60
2019-05-14T08:42:34.033Z,2.00
2019-05-14T08:45:21.313Z,1.90
2019-05-14T08:48:11.962Z,1.50
2019-05-14T08:51:00.737Z,1.43
2019-05-14T08:53:50.724Z,1.60
2019-05-14T08:56:40.060Z,1.40
2019-05-14T08:59:29.282Z,1.37
2019-05-14T09:02:19.731Z,1.50
2019-05-14T09:05:10.912Z,1.67
2019-05-14T09:08:01.055Z,1.60
2019-05-14T09:10:51.331Z,1.50
2019-05-14T09:13:41.232Z,1.60
2019-05-14T09:16:43.205Z,1.93
2019-05-14T09:19:21.505Z,2.13
2019-05-14T09:22:11.190Z,1.80
2019-05-14T09:25:01.226Z,1.57
2019-05-14T09:27:51.664Z,1.60
2019-05-14T09:30:41.372Z,1.63
2019-05-14T09:33:30.935Z,1.17
2019-05-14T09:36:24.156Z,1.60
2019-05-14T09:39:12.154Z,1.70
2019-05-14T09:42:01.291Z,1.53
2019-05-14T09:44:51.542Z,1.50
2019-05-14T09:47:40.961Z,1.77
2019-05-14T09:50:29.972Z,1.27
2019-05-14T09:53:19.935Z,1.30
2019-05-14T09:56:09.938Z,2.43
2019-05-14T09:58:59.751Z,1.63
2019-05-14T10:01:50.717Z,1.60
2019-05-14T10:04:40.367Z,2.67
2019-05-14T10:07:29.952Z,1.67
2019-05-14T10:10:20.115Z,1.73
2019-05-14T10:13:10.739Z,1.80
2019-05-14T10:16:01.323Z,1.43
2019-05-14T10:18:52.872Z,1.50
2019-05-14T10:21:41.313Z,1.13
2019-05-14T10:24:31.866Z,1.33
2019-05-14T10:27:22.012Z,1.47
2019-05-14T10:30:12.030Z,1.40
2019-05-14T10:33:09.227Z,1.50
2019-05-14T10:35:51.854Z,1.60
2019-05-14T10:38:41.379Z,1.83
2019-05-14T10:41:30.832Z,1.80
2019-05-14T10:44:20.042Z,1.10
2019-05-14T10:47:09.641Z,1.33
2019-05-14T10:49:59.155Z,1.50
2019-05-14T10:52:49.126Z,1.70
2019-05-14T10:55:38.812Z,1.60
2019-05-14T10:58:29.295Z,1.17
2019-05-14T11:01:22.474Z,1.70
2019-05-14T11:04:10.871Z,1.63
2019-05-14T11:07:00.370Z,1.50
2019-05-14T11:09:50.279Z,1.20
2019-05-14T11:12:40.300Z,1.20
2019-05-14T11:15:30.389Z,1.00
2019-05-14T11:18:20.031Z,1.70
2019-05-14T11:21:27.526Z,1.40
2019-05-14T11:24:02.019Z,1.50
2019-05-14T11:26:51.970Z,1.30
2019-05-14T11:29:42.419Z,1.33
2019-05-14T11:32:32.327Z,1.27
2019-05-14T11:35:22.136Z,1.73
2019-05-14T11:38:28.016Z,1.40
2019-05-14T11:41:01.892Z,1.50
2019-05-14T11:47:04.897Z,1.23
2019-05-14T11:49:54.668Z,1.70
2019-05-14T11:52:43.730Z,1.30
2019-05-14T11:55:33.367Z,1.33
2019-05-14T11:58:24.200Z,1.20
2019-05-14T12:01:14.430Z,2.13
2019-05-14T12:04:04.812Z,1.20
2019-05-14T12:06:55.484Z,1.10
2019-05-14T12:09:45.673Z,1.07
2019-05-14T12:12:35.230Z,1.50
2019-05-14T12:15:25.450Z,0.87
2019-05-14T12:18:14.747Z,1.80
2019-05-14T12:21:08.755Z,1.40
2019-05-14T12:24:06.216Z,3.67
2019-05-14T12:26:58.440Z,1.27
2019-05-14T12:29:49.844Z,1.30
2019-05-14T12:32:39.580Z,1.10
2019-05-14T12:35:29.871Z,1.30
2019-05-14T12:38:19.695Z,1.37
2019-05-14T12:41:09.473Z,1.30
2019-05-14T12:43:59.188Z,1.03
2019-05-14T12:46:58.531Z,1.57
2019-05-14T12:49:48.327Z,1.17
2019-05-14T12:52:39.239Z,1.43
2019-05-14T12:55:29.952Z,1.17
2019-05-14T12:58:20.568Z,1.53
2019-05-14T13:01:10.834Z,1.73
2019-05-14T13:04:00.536Z,1.33
2019-05-14T13:06:50.631Z,1.20
2019-05-14T13:09:41.099Z,1.10
2019-05-14T13:12:30.757Z,1.17
2019-05-14T13:15:22.118Z,1.13
2019-05-14T13:18:11.562Z,1.13
2019-05-14T13:21:02.978Z,1.63
2019-05-14T13:23:52.742Z,1.57
2019-05-14T13:26:49.633Z,1.67
2019-05-14T13:29:39.708Z,1.80
2019-05-14T13:32:28.935Z,2.27
2019-05-14T13:35:19.625Z,1.97
2019-05-14T13:38:14.336Z,1.60
2019-05-14T13:41:02.009Z,2.00
2019-05-14T13:43:51.487Z,2.30
2019-05-14T13:46:42.411Z,2.20
2019-05-14T13:49:31.883Z,2.13
2019-05-14T13:52:21.621Z,4.13
2019-05-14T13:55:11.464Z,1.90
2019-05-14T13:58:01.589Z,3.23
2019-05-14T14:00:52.035Z,1.80
2019-05-14T14:03:47.918Z,1.90
2019-05-14T14:06:33.731Z,1.87
2019-05-14T14:09:23.479Z,2.03
2019-05-14T14:12:13.293Z,2.13
2019-05-14T14:15:03.047Z,1.77
2019-05-14T14:17:53.771Z,1.87
2019-05-14T14:20:43.710Z,2.20
2019-05-14T14:23:35.116Z,1.90
2019-05-14T14:26:25.590Z,1.90
2019-05-14T14:29:18.481Z,1.60
2019-05-14T14:32:11.091Z,1.70
2019-05-14T14:34:58.947Z,1.70
2019-05-14T14:37:49.403Z,1.57
2019-05-14T14:40:39.800Z,1.60
2019-05-14T14:43:29.865Z,1.63
2019-05-14T14:46:20.846Z,1.57
2019-05-14T14:49:11.146Z,1.37
2019-05-14T14:52:01.242Z,1.90
2019-05-14T14:54:50.401Z,1.80
2019-05-14T14:57:45.300Z,1.60
2019-05-14T15:00:30.915Z,1.60
2019-05-14T15:03:21.207Z,1.60
2019-05-14T15:06:11.427Z,2.10
2019-05-14T15:09:01.431Z,1.40
2019-05-14T15:11:53.357Z,1.87
2019-05-14T15:14:43.519Z,1.73
2019-05-14T15:17:32.871Z,1.20
2019-05-14T15:20:22.347Z,1.33
2019-05-14T15:23:11.597Z,1.57
2019-05-14T15:26:01.883Z,1.37
2019-05-14T15:28:51.515Z,1.53
2019-05-14T15:31:42.346Z,1.10
2019-05-14T15:34:31.051Z,1.40
2019-05-14T15:37:20.078Z,1.60
2019-05-14T15:40:09.317Z,1.30
2019-05-14T15:42:58.952Z,1.43
2019-05-14T15:45:49.037Z,1.20
2019-05-14T15:48:39.634Z,1.87
2019-05-14T15:51:30.431Z,1.20
2019-05-14T15:54:36.134Z,1.40
2019-05-14T15:57:11.714Z,1.30
2019-05-14T16:00:08.704Z,1.57
2019-05-14T16:03:03.537Z,1.23
2019-05-14T16:05:53.695Z,1.53
2019-05-14T16:08:44.081Z,1.60
2019-05-14T16:11:34.262Z,1.50
2019-05-14T16:14:24.070Z,1.50
2019-05-14T16:17:15.723Z,1.87
2019-05-14T16:20:08.755Z,1.20
2019-05-14T16:22:58.985Z,1.53
2019-05-14T16:25:49.277Z,1.07
2019-05-14T16:28:39.916Z,1.43
2019-05-14T16:31:31.608Z,1.23
2019-05-14T16:34:21.455Z,1.40
2019-05-14T16:37:11.315Z,1.40
2019-05-14T16:40:01.446Z,1.10
2019-05-14T16:42:51.748Z,1.10
2019-05-14T16:45:40.740Z,1.20
2019-05-14T16:48:30.894Z,1.60
2019-05-14T16:51:27.999Z,1.53
2019-05-14T16:54:18.228Z,1.67
2019-05-14T16:57:10.948Z,1.20
2019-05-14T17:00:05.539Z,1.20
2019-05-14T17:02:59.011Z,1.20
2019-05-14T17:05:50.013Z,1.07
2019-05-14T17:08:40.301Z,3.10
2019-05-14T17:11:31.160Z,1.23
2019-05-14T17:14:20.765Z,1.73
2019-05-14T17:17:09.636Z,1.30
2019-05-14T17:19:59.922Z,1.33
2019-05-14T17:22:49.927Z,1.10
2019-05-14T17:25:39.287Z,1.43
2019-05-14T17:28:29.215Z,1.40
2019-05-14T17:31:19.263Z,1.00
2019-05-14T17:34:08.787Z,1.40
2019-05-14T17:36:59.425Z,1.17
2019-05-14T17:39:50.191Z,1.00
2019-05-14T17:42:40.150Z,1.60
2019-05-14T17:45:29.611Z,3.03
2019-05-14T17:48:20.002Z,1.43
2019-05-14T17:51:10.037Z,1.03
2019-05-14T17:53:59.252Z,1.30
2019-05-14T17:56:49.083Z,1.17
2019-05-14T17:59:39.892Z,0.93
2019-05-14T18:02:29.567Z,0.87
2019-05-14T18:05:19.221Z,1.00
2019-05-14T18:08:09.379Z,0.83
2019-05-14T18:11:01.729Z,1.20
2019-05-14T18:13:50.375Z,0.87
2019-05-14T18:16:39.289Z,1.60
2019-05-14T18:19:29.654Z,1.10
2019-05-14T18:22:20.030Z,1.17
2019-05-14T18:25:12.983Z,1.13
2019-05-14T18:28:02.143Z,3.67
2019-05-14T18:30:51.466Z,1.40
2019-05-14T18:33:41.371Z,1.40
2019-05-14T18:36:31.415Z,1.40
2019-05-14T18:39:21.319Z,1.60
2019-05-14T18:42:11.274Z,1.20
2019-05-14T18:45:00.926Z,1.50
2019-05-14T18:47:58.950Z,1.30
2019-05-14T18:50:48.440Z,2.03
2019-05-14T18:53:38.665Z,1.43
2019-05-14T18:56:30.123Z,1.60
2019-05-14T18:59:21.240Z,1.50
2019-05-14T19:02:12.165Z,1.37
2019-05-14T19:05:02.856Z,1.50
2019-05-14T19:07:52.432Z,1.20
2019-05-14T19:10:42.131Z,1.53
2019-05-14T19:13:31.521Z,1.90
2019-05-14T19:16:20.838Z,1.97
2019-05-14T19:19:11.013Z,2.07
2019-05-14T19:24:58.634Z,1.50
2019-05-14T19:27:48.772Z,1.40
2019-05-14T19:30:39.563Z,1.20
2019-05-14T19:33:28.972Z,1.43
2019-05-14T19:36:19.274Z,1.80
2019-05-14T19:39:10.365Z,1.30
2019-05-14T19:41:59.841Z,1.33
2019-05-14T19:44:48.966Z,1.43
2019-05-14T19:47:40.105Z,1.73
2019-05-14T19:50:29.607Z,1.90
2019-05-14T19:53:20.218Z,1.60
2019-05-14T19:56:09.612Z,1.77
2019-05-14T19:58:59.461Z,2.17
2019-05-14T20:01:50.567Z,2.40
2019-05-14T20:04:41.079Z,1.80
2019-05-14T20:07:31.618Z,1.90
2019-05-14T20:10:22.100Z,1.67
2019-05-14T20:13:11.269Z,1.90
2019-05-14T20:16:00.859Z,1.97
2019-05-14T20:18:49.907Z,1.70
2019-05-14T20:21:45.054Z,2.40
2019-05-14T20:24:34.589Z,2.00
2019-05-14T20:27:24.328Z,2.30
2019-05-14T20:30:18.559Z,2.60
2019-05-14T20:33:08.584Z,2.40
2019-05-14T20:35:59.152Z,2.40
2019-05-14T20:38:48.994Z,2.00
2019-05-14T20:41:38.772Z,2.03
2019-05-14T20:44:27.978Z,2.00
2019-05-14T20:47:18.967Z,2.10
2019-05-14T20:50:09.181Z,2.23
2019-05-14T20:53:00.134Z,2.07
2019-05-14T20:55:49.274Z,2.60
2019-05-14T20:58:40.209Z,2.30
2019-05-14T21:01:29.723Z,2.40
2019-05-14T21:04:20.328Z,2.40
2019-05-14T21:07:10.214Z,2.37
2019-05-14T21:09:59.655Z,2.40
2019-05-14T21:12:54.874Z,2.30
2019-05-14T21:15:44.736Z,2.70
2019-05-14T21:18:35.571Z,1.70
2019-05-14T21:21:28.111Z,2.37
2019-05-14T21:24:18.153Z,2.77
2019-05-14T21:27:09.295Z,2.60
2019-05-14T21:29:59.768Z,2.10
2019-05-14T21:32:49.830Z,1.80
2019-05-14T21:35:39.343Z,2.20
2019-05-14T21:38:29.138Z,2.00
2019-05-14T21:41:20.450Z,2.40
2019-05-14T21:44:09.894Z,1.87
2019-05-14T21:46:59.431Z,1.77
2019-05-14T21:49:50.051Z,2.43
2019-05-14T21:52:42.337Z,2.63
2019-05-14T21:55:30.595Z,2.50
2019-05-14T21:58:20.876Z,3.10
2019-05-14T22:01:11.665Z,1.90
2019-05-14T22:04:01.862Z,2.30
2019-05-14T22:06:52.211Z,2.20
2019-05-14T22:09:41.624Z,2.13
2019-05-14T22:12:31.182Z,2.10
2019-05-14T22:15:20.705Z,2.47
2019-05-14T22:18:16.923Z,1.90
2019-05-14T22:21:01.114Z,2.07
2019-05-14T22:23:50.830Z,2.80
2019-05-14T22:29:37.906Z,2.43
2019-05-14T22:35:23.314Z,3.57
2019-05-14T22:38:14.460Z,3.70
2019-05-14T22:41:04.077Z,2.60
2019-05-14T22:43:56.714Z,3.20
2019-05-14T22:46:44.679Z,2.53
2019-05-14T22:49:35.023Z,2.70
2019-05-14T22:52:24.829Z,2.60
2019-05-14T22:55:14.744Z,2.60
2019-05-14T22:58:04.452Z,2.73
2019-05-14T23:01:13.622Z,2.37
2019-05-14T23:03:49.803Z,2.80
2019-05-14T23:06:39.301Z,3.20
2019-05-14T23:09:29.231Z,3.10
2019-05-14T23:12:18.935Z,3.40
2019-05-14T23:15:09.609Z,2.57
2019-05-14T23:17:58.972Z,2.87
2019-05-14T23:20:49.335Z,3.03
2019-05-14T23:23:39.390Z,2.87
2019-05-14T23:26:29.258Z,3.00
2019-05-14T23:29:18.933Z,2.50
2019-05-14T23:32:08.210Z,3.37
2019-05-14T23:34:58.553Z,2.93
2019-05-14T23:37:49.022Z,2.50
2019-05-14T23:40:38.936Z,3.37
2019-05-14T23:43:29.076Z,2.93
2019-05-14T23:46:18.596Z,3.07
2019-05-14T23:49:08.876Z,3.07
2019-05-14T23:51:59.676Z,2.40
2019-05-14T23:54:49.858Z,2.73
2019-05-14T23:57:39.267Z,2.43
